createdAt,value
2023-08-07T00:02:02.050Z,60.50
2023-08-07T00:04:29.471Z,60.90
2023-08-07T00:06:56.351Z,61.30
2023-08-07T00:09:23.203Z,61.70
2023-08-07T00:11:50.058Z,61.90
2023-08-07T00:14:17.257Z,61.20
2023-08-07T00:16:44.124Z,63.00
2023-08-07T00:19:11.889Z,62.00
2023-08-07T00:21:40.123Z,61.70
2023-08-07T00:24:07.060Z,61.30
2023-08-07T00:26:34.016Z,61.60
2023-08-07T00:29:00.944Z,61.60
2023-08-07T00:31:32.126Z,61.80
2023-08-07T00:34:00.672Z,61.80
2023-08-07T00:36:29.974Z,61.80
2023-08-07T00:38:57.019Z,61.80
2023-08-07T00:41:24.038Z,61.80
2023-08-07T00:43:51.023Z,61.80
2023-08-07T00:46:18.246Z,62.00
2023-08-07T00:48:45.535Z,62.10
2023-08-07T00:51:13.115Z,62.20
2023-08-07T00:53:41.624Z,62.20
2023-08-07T00:56:08.909Z,62.30
2023-08-07T00:58:36.497Z,62.10
2023-08-07T01:01:03.660Z,62.30
2023-08-07T01:03:30.640Z,62.30
2023-08-07T01:05:57.709Z,62.80
2023-08-07T01:08:26.032Z,63.30
2023-08-07T01:11:01.350Z,63.50
2023-08-07T01:13:38.565Z,65.30
2023-08-07T01:16:13.866Z,64.20
2023-08-07T01:18:42.939Z,64.50
2023-08-07T01:21:21.546Z,63.60
2023-08-07T01:23:49.505Z,63.60
2023-08-07T01:26:18.240Z,63.40
2023-08-07T01:28:56.958Z,63.30
2023-08-07T01:31:25.982Z,63.50
2023-08-07T01:34:00.172Z,63.50
2023-08-07T01:36:29.888Z,63.50
2023-08-07T01:39:00.645Z,63.30
2023-08-07T01:41:28.229Z,63.50
2023-08-07T01:43:56.040Z,63.40
2023-08-07T01:46:22.889Z,63.20
2023-08-07T01:48:49.687Z,63.00
2023-08-07T01:51:16.562Z,62.70
2023-08-07T01:53:43.376Z,64.20
2023-08-07T01:56:10.204Z,0.00
2023-08-07T01:58:36.999Z,63.60
2023-08-07T02:01:03.880Z,63.20
2023-08-07T02:03:30.847Z,63.50
2023-08-07T02:05:57.821Z,63.70
2023-08-07T02:08:24.639Z,63.90
2023-08-07T02:10:51.506Z,63.90
2023-08-07T02:13:18.324Z,63.50
2023-08-07T02:15:45.151Z,63.20
2023-08-07T02:18:11.956Z,62.80
2023-08-07T02:20:38.802Z,62.70
2023-08-07T02:23:05.766Z,62.40
2023-08-07T02:25:32.533Z,62.60
2023-08-07T02:27:59.375Z,62.70
2023-08-07T02:30:26.354Z,62.50
2023-08-07T02:32:53.227Z,62.50
2023-08-07T02:35:20.051Z,62.20
2023-08-07T02:37:46.853Z,63.00
2023-08-07T02:40:16.413Z,63.70
2023-08-07T02:42:43.756Z,63.80
2023-08-07T02:45:11.030Z,64.90
2023-08-07T02:47:38.238Z,64.50
2023-08-07T02:50:05.509Z,64.30
2023-08-07T02:52:32.342Z,64.00
2023-08-07T02:54:59.660Z,63.50
2023-08-07T02:57:26.881Z,62.90
2023-08-07T02:59:53.711Z,63.00
2023-08-07T03:02:20.603Z,62.30
2023-08-07T03:04:47.538Z,62.30
2023-08-07T03:07:14.464Z,61.90
2023-08-07T03:09:41.236Z,62.00
2023-08-07T03:12:08.460Z,62.30
2023-08-07T03:14:35.269Z,62.30
2023-08-07T03:17:02.217Z,62.10
2023-08-07T03:19:29.066Z,61.80
2023-08-07T03:21:55.961Z,61.50
2023-08-07T03:24:22.885Z,61.60
2023-08-07T03:26:50.311Z,61.70
2023-08-07T03:29:17.210Z,62.20
2023-08-07T03:31:44.037Z,61.40
2023-08-07T03:34:10.865Z,59.60
2023-08-07T03:36:37.656Z,58.30
2023-08-07T03:39:04.396Z,57.40
2023-08-07T03:41:31.231Z,55.10
2023-08-07T03:43:58.240Z,55.10
2023-08-07T03:46:25.129Z,54.60
2023-08-07T03:48:52.150Z,54.40
2023-08-07T03:51:19.420Z,55.40
2023-08-07T03:53:46.176Z,55.20
2023-08-07T03:56:13.016Z,55.20
2023-08-07T03:58:39.976Z,54.70
2023-08-07T04:01:06.903Z,55.20
2023-08-07T04:03:33.940Z,55.80
2023-08-07T04:06:03.012Z,56.30
2023-08-07T04:08:29.980Z,56.20
2023-08-07T04:11:06.820Z,56.30
2023-08-07T04:13:33.755Z,56.50
2023-08-07T04:16:02.799Z,56.60
2023-08-07T04:18:31.150Z,56.20
2023-08-07T04:20:58.681Z,56.20
2023-08-07T04:23:25.789Z,56.20
2023-08-07T04:25:54.449Z,56.80
2023-08-07T04:28:21.602Z,56.30
2023-08-07T04:30:52.074Z,56.80
2023-08-07T04:33:19.480Z,57.00
2023-08-07T04:35:47.691Z,57.70
2023-08-07T04:38:18.413Z,58.50
2023-08-07T04:40:47.067Z,58.40
2023-08-07T04:43:14.931Z,58.30
2023-08-07T04:45:42.672Z,58.90
2023-08-07T04:48:09.824Z,58.90
2023-08-07T04:50:36.694Z,59.30
2023-08-07T04:53:03.614Z,58.90
2023-08-07T04:55:30.446Z,59.20
2023-08-07T04:57:57.455Z,59.50
2023-08-07T05:00:25.064Z,58.30
2023-08-07T05:02:52.485Z,58.50
2023-08-07T05:05:22.467Z,57.90
2023-08-07T05:07:49.841Z,57.80
2023-08-07T05:10:16.847Z,57.70
2023-08-07T05:12:43.761Z,57.20
2023-08-07T05:15:10.927Z,57.10
2023-08-07T05:17:37.762Z,57.40
2023-08-07T05:20:06.360Z,57.30
2023-08-07T05:22:33.176Z,57.40
2023-08-07T05:24:59.985Z,57.30
2023-08-07T05:27:26.763Z,57.70
2023-08-07T05:29:53.527Z,58.00
2023-08-07T05:32:20.518Z,58.00
2023-08-07T05:34:47.359Z,57.20
2023-08-07T05:37:14.184Z,56.90
2023-08-07T05:39:40.934Z,57.50
2023-08-07T05:42:09.138Z,57.60
2023-08-07T05:44:36.073Z,57.60
2023-08-07T05:47:02.956Z,57.90
2023-08-07T05:49:29.766Z,57.90
2023-08-07T05:51:56.888Z,57.60
2023-08-07T05:54:23.878Z,56.90
2023-08-07T05:56:50.653Z,56.20
2023-08-07T05:59:17.587Z,55.90
2023-08-07T06:01:44.357Z,52.80
2023-08-07T06:04:11.327Z,52.90
2023-08-07T06:06:40.407Z,52.60
2023-08-07T06:09:07.621Z,52.70
2023-08-07T06:11:34.691Z,52.70
2023-08-07T06:14:02.522Z,52.30
2023-08-07T06:16:29.563Z,51.70
2023-08-07T06:18:56.651Z,50.70
2023-08-07T06:21:23.492Z,50.60
2023-08-07T06:23:50.474Z,51.00
2023-08-07T06:26:17.374Z,50.20
2023-08-07T06:28:44.543Z,50.70
2023-08-07T06:31:13.269Z,49.80
2023-08-07T06:33:40.364Z,49.50
2023-08-07T06:36:07.903Z,49.60
2023-08-07T06:38:34.757Z,48.50
2023-08-07T06:41:01.718Z,48.30
2023-08-07T06:43:28.843Z,47.20
2023-08-07T06:45:57.522Z,46.20
2023-08-07T06:48:24.503Z,46.60
2023-08-07T06:50:52.219Z,47.00
2023-08-07T06:53:20.567Z,46.70
2023-08-07T06:55:47.893Z,46.50
2023-08-07T06:58:14.785Z,45.80
2023-08-07T07:00:41.905Z,44.40
2023-08-07T07:03:10.824Z,44.90
2023-08-07T07:05:37.799Z,44.10
2023-08-07T07:08:04.943Z,44.60
2023-08-07T07:10:32.189Z,45.70
2023-08-07T07:12:59.130Z,45.80
2023-08-07T07:15:25.936Z,46.40
2023-08-07T07:17:52.761Z,45.50
2023-08-07T07:20:19.907Z,45.10
2023-08-07T07:22:46.768Z,45.90
2023-08-07T07:25:13.610Z,45.70
2023-08-07T07:27:41.181Z,46.00
2023-08-07T07:30:08.910Z,45.60
2023-08-07T07:32:35.858Z,45.80
2023-08-07T07:35:02.924Z,46.10
2023-08-07T07:37:30.930Z,46.40
2023-08-07T07:39:57.689Z,46.80
2023-08-07T07:42:24.461Z,47.50
2023-08-07T07:44:51.304Z,48.20
2023-08-07T07:47:18.113Z,48.10
2023-08-07T07:49:50.347Z,48.20
2023-08-07T07:52:17.131Z,48.40
2023-08-07T07:54:44.025Z,48.10
2023-08-07T07:57:10.958Z,48.00
2023-08-07T07:59:38.235Z,46.80
2023-08-07T08:02:05.718Z,46.40
2023-08-07T08:04:32.767Z,46.10
2023-08-07T08:07:00.750Z,45.60
2023-08-07T08:09:27.822Z,45.40
2023-08-07T08:11:54.792Z,44.90
2023-08-07T08:14:21.721Z,44.30
2023-08-07T08:16:48.678Z,43.30
2023-08-07T08:19:17.433Z,42.30
2023-08-07T08:21:44.714Z,41.00
2023-08-07T08:24:11.605Z,39.90
2023-08-07T08:26:38.469Z,43.80
2023-08-07T08:29:08.966Z,44.90
2023-08-07T08:31:36.006Z,45.30
2023-08-07T08:34:02.839Z,45.40
2023-08-07T08:36:29.758Z,45.00
2023-08-07T08:38:56.519Z,45.10
2023-08-07T08:41:23.900Z,44.00
2023-08-07T08:43:54.076Z,42.70
2023-08-07T08:46:24.742Z,41.00
2023-08-07T08:48:57.052Z,38.40
2023-08-07T08:51:25.755Z,39.20
2023-08-07T08:53:57.619Z,40.90
2023-08-07T08:56:25.432Z,40.20
2023-08-07T08:58:52.917Z,39.50
2023-08-07T09:01:20.205Z,39.70
2023-08-07T09:03:47.515Z,38.20
2023-08-07T09:06:15.009Z,38.00
2023-08-07T09:08:45.180Z,38.30
2023-08-07T09:11:13.704Z,38.20
2023-08-07T09:13:42.032Z,38.30
2023-08-07T09:16:10.153Z,38.10
2023-08-07T09:18:37.103Z,38.70
2023-08-07T09:21:04.536Z,38.60
2023-08-07T09:23:32.017Z,39.50
2023-08-07T09:26:03.079Z,38.40
2023-08-07T09:28:33.595Z,37.40
2023-08-07T09:31:02.782Z,37.00
2023-08-07T09:33:31.487Z,36.60
2023-08-07T09:36:02.621Z,37.70
2023-08-07T09:38:31.174Z,37.40
2023-08-07T09:41:02.476Z,36.30
2023-08-07T09:43:30.060Z,36.30
2023-08-07T09:46:07.490Z,35.80
2023-08-07T09:48:41.482Z,35.50
2023-08-07T09:51:08.864Z,34.90
2023-08-07T09:53:35.855Z,34.30
2023-08-07T09:56:03.373Z,33.40
2023-08-07T09:58:30.781Z,33.20
2023-08-07T10:01:00.935Z,33.60
2023-08-07T10:03:28.242Z,33.90
2023-08-07T10:05:55.929Z,33.40
2023-08-07T10:08:23.344Z,33.60
2023-08-07T10:10:50.356Z,33.90
2023-08-07T10:13:19.042Z,34.20
2023-08-07T10:15:48.553Z,33.90
2023-08-07T10:18:15.424Z,34.30
2023-08-07T10:20:44.661Z,35.50
2023-08-07T10:23:12.615Z,35.10
2023-08-07T10:25:42.513Z,35.40
2023-08-07T10:28:13.387Z,35.20
2023-08-07T10:30:42.444Z,34.80
2023-08-07T10:33:11.555Z,34.90
2023-08-07T10:35:38.526Z,35.10
2023-08-07T10:38:09.785Z,35.60
2023-08-07T10:41:04.041Z,34.10
2023-08-07T10:43:31.577Z,32.60
2023-08-07T10:46:07.621Z,32.40
2023-08-07T10:48:45.333Z,32.40
2023-08-07T10:51:18.694Z,31.60
2023-08-07T10:53:48.645Z,31.00
2023-08-07T10:56:29.922Z,31.60
2023-08-07T10:58:56.748Z,30.90
2023-08-07T11:01:32.238Z,29.70
2023-08-07T11:04:01.333Z,32.00
2023-08-07T11:06:39.970Z,32.10
2023-08-07T11:09:09.662Z,33.20
2023-08-07T11:11:43.740Z,32.70
2023-08-07T11:14:18.301Z,31.80
2023-08-07T11:16:46.872Z,31.40
2023-08-07T11:19:16.368Z,30.80
2023-08-07T11:21:43.800Z,0.00
2023-08-07T11:24:14.496Z,30.70
2023-08-07T11:26:43.231Z,31.50
2023-08-07T11:29:10.514Z,31.30
2023-08-07T11:31:37.610Z,30.70
2023-08-07T11:34:04.868Z,30.80
2023-08-07T11:36:32.928Z,29.50
2023-08-07T11:38:59.837Z,0.00
2023-08-07T11:41:26.633Z,29.90
2023-08-07T11:43:53.394Z,29.10
2023-08-07T11:46:20.239Z,29.30
2023-08-07T11:48:47.094Z,27.90
2023-08-07T11:51:14.438Z,27.20
2023-08-07T11:53:43.064Z,27.50
2023-08-07T11:56:17.625Z,29.20
2023-08-07T11:58:49.038Z,27.70
2023-08-07T12:01:21.803Z,27.30
2023-08-07T12:04:10.736Z,27.90
2023-08-07T12:06:41.656Z,27.10
2023-08-07T12:09:14.072Z,26.70
2023-08-07T12:11:41.289Z,26.70
2023-08-07T12:14:08.100Z,26.00
2023-08-07T12:16:36.129Z,25.40
2023-08-07T12:19:03.270Z,25.30
2023-08-07T12:21:30.156Z,25.20
2023-08-07T12:23:57.828Z,25.20
2023-08-07T12:26:24.727Z,25.20
2023-08-07T12:28:52.138Z,25.40
2023-08-07T12:31:19.541Z,25.70
2023-08-07T12:33:46.707Z,26.00
2023-08-07T12:38:45.386Z,24.70
2023-08-07T12:43:42.212Z,26.10
2023-08-07T12:48:38.695Z,26.00
2023-08-07T12:51:05.469Z,0.00
2023-08-07T12:53:32.937Z,25.90
2023-08-07T12:55:59.821Z,26.30
2023-08-07T12:58:28.772Z,26.00
2023-08-07T13:00:55.735Z,25.70
2023-08-07T13:03:22.621Z,26.70
2023-08-07T13:05:49.689Z,25.90
2023-08-07T13:08:16.542Z,26.60
2023-08-07T13:10:43.357Z,0.00
2023-08-07T13:13:10.206Z,25.90
2023-08-07T13:15:36.985Z,26.90
2023-08-07T13:18:04.428Z,26.30
2023-08-07T13:20:35.040Z,27.00
2023-08-07T13:23:03.016Z,27.10
2023-08-07T13:25:29.976Z,27.60
2023-08-07T13:27:56.795Z,26.70
2023-08-07T13:30:23.617Z,26.20
2023-08-07T13:35:17.950Z,26.40
2023-08-07T13:37:44.776Z,26.80
2023-08-07T13:40:12.772Z,26.20
2023-08-07T13:42:40.154Z,26.20
2023-08-07T13:45:08.636Z,26.30
2023-08-07T13:47:36.891Z,25.50
2023-08-07T13:50:04.555Z,25.80
2023-08-07T13:52:31.937Z,26.10
2023-08-07T13:54:58.941Z,25.40
2023-08-07T13:57:25.810Z,25.80
2023-08-07T13:59:52.654Z,25.80
2023-08-07T14:02:19.512Z,25.40
2023-08-07T14:04:46.674Z,25.10
2023-08-07T14:07:13.891Z,25.40
2023-08-07T14:09:40.931Z,25.20
2023-08-07T14:12:08.305Z,25.40
2023-08-07T14:14:35.074Z,25.20
2023-08-07T14:17:03.324Z,25.10
2023-08-07T14:19:30.266Z,26.10
2023-08-07T14:21:57.144Z,25.80
2023-08-07T14:24:24.582Z,25.40
2023-08-07T14:26:51.459Z,25.10
2023-08-07T14:29:18.339Z,24.70
2023-08-07T14:31:45.156Z,24.90
2023-08-07T14:34:11.993Z,24.30
2023-08-07T14:36:38.827Z,25.10
2023-08-07T14:39:05.694Z,25.30
2023-08-07T14:41:32.584Z,25.10
2023-08-07T14:43:59.411Z,24.50
2023-08-07T14:46:26.270Z,24.50
2023-08-07T14:48:53.158Z,25.00
2023-08-07T14:51:19.983Z,24.80
2023-08-07T14:53:46.843Z,24.20
2023-08-07T14:56:13.722Z,24.90
2023-08-07T14:58:40.733Z,24.00
2023-08-07T15:01:08.053Z,24.40
2023-08-07T15:03:34.877Z,24.20
2023-08-07T15:06:01.777Z,24.10
2023-08-07T15:08:28.552Z,24.10
2023-08-07T15:10:55.401Z,24.40
2023-08-07T15:13:22.381Z,24.10
2023-08-07T15:15:49.225Z,24.10
2023-08-07T15:18:16.038Z,24.30
2023-08-07T15:20:42.936Z,24.20
2023-08-07T15:23:09.800Z,24.10
2023-08-07T15:25:38.736Z,24.00
2023-08-07T15:28:06.689Z,24.00
2023-08-07T15:30:34.059Z,24.00
2023-08-07T15:33:00.902Z,23.40
2023-08-07T15:35:31.191Z,23.30
2023-08-07T15:37:59.216Z,24.00
2023-08-07T15:40:28.800Z,24.20
2023-08-07T15:42:55.672Z,24.10
2023-08-07T15:45:22.584Z,24.20
2023-08-07T15:47:49.438Z,24.80
2023-08-07T15:50:16.515Z,23.90
2023-08-07T15:52:43.553Z,23.90
2023-08-07T15:55:10.406Z,24.00
2023-08-07T15:57:37.275Z,23.70
2023-08-07T16:00:06.896Z,23.60
2023-08-07T16:02:33.756Z,23.70
2023-08-07T16:05:00.688Z,24.00
2023-08-07T16:07:29.321Z,24.40
2023-08-07T16:09:56.918Z,23.80
2023-08-07T16:12:23.919Z,23.80
2023-08-07T16:14:50.801Z,24.20
2023-08-07T16:17:17.626Z,23.70
2023-08-07T16:19:44.520Z,23.90
2023-08-07T16:22:11.665Z,24.30
2023-08-07T16:24:38.589Z,24.40
2023-08-07T16:27:06.259Z,24.30
2023-08-07T16:29:33.173Z,24.70
2023-08-07T16:32:07.646Z,24.60
2023-08-07T16:34:34.806Z,24.10
2023-08-07T16:37:01.823Z,24.80
2023-08-07T16:39:29.094Z,25.20
2023-08-07T16:41:55.976Z,25.00
2023-08-07T16:44:22.963Z,25.00
2023-08-07T16:46:49.840Z,25.30
2023-08-07T16:49:17.077Z,25.50
2023-08-07T16:51:44.891Z,25.70
2023-08-07T16:54:11.860Z,25.80
2023-08-07T16:56:38.675Z,25.90
2023-08-07T16:59:05.531Z,25.80
2023-08-07T17:01:32.401Z,0.00
2023-08-07T17:03:59.245Z,26.50
2023-08-07T17:06:26.044Z,26.10
2023-08-07T17:08:53.485Z,26.40
2023-08-07T17:11:20.926Z,26.60
2023-08-07T17:13:47.946Z,26.40
2023-08-07T17:16:14.779Z,26.70
2023-08-07T17:18:41.608Z,26.20
2023-08-07T17:21:08.499Z,26.30
2023-08-07T17:23:35.297Z,28.70
2023-08-07T17:26:02.668Z,29.00
2023-08-07T17:28:32.872Z,0.00
2023-08-07T17:31:01.032Z,29.60
2023-08-07T17:33:28.260Z,29.70
2023-08-07T17:35:55.261Z,29.90
2023-08-07T17:38:22.147Z,29.70
2023-08-07T17:40:50.239Z,30.10
2023-08-07T17:43:17.268Z,30.20
2023-08-07T17:45:44.237Z,30.30
2023-08-07T17:48:11.218Z,30.50
2023-08-07T17:50:38.907Z,30.90
2023-08-07T17:53:06.194Z,0.00
2023-08-07T17:55:33.298Z,31.00
2023-08-07T17:58:00.183Z,30.90
2023-08-07T18:00:27.228Z,31.10
2023-08-07T18:02:55.311Z,31.50
2023-08-07T18:05:23.582Z,31.80
2023-08-07T18:07:51.813Z,31.90
2023-08-07T18:10:18.654Z,31.80
2023-08-07T18:12:45.483Z,31.90
2023-08-07T18:15:12.268Z,32.20
2023-08-07T18:17:39.200Z,32.20
2023-08-07T18:20:07.485Z,32.50
2023-08-07T18:22:34.830Z,32.40
2023-08-07T18:25:01.692Z,32.50
2023-08-07T18:27:28.567Z,32.70
2023-08-07T18:29:55.435Z,33.10
2023-08-07T18:32:22.423Z,33.50
2023-08-07T18:34:49.460Z,33.90
2023-08-07T18:37:16.336Z,34.20
2023-08-07T18:39:43.235Z,34.50
2023-08-07T18:42:10.061Z,34.70
2023-08-07T18:44:36.816Z,34.80
2023-08-07T18:47:03.706Z,34.80
2023-08-07T18:49:30.776Z,34.60
2023-08-07T18:51:57.572Z,34.60
2023-08-07T18:54:25.479Z,34.70
2023-08-07T18:56:53.760Z,35.00
2023-08-07T18:59:20.947Z,35.00
2023-08-07T19:01:47.826Z,35.30
2023-08-07T19:04:14.888Z,35.20
2023-08-07T19:06:43.685Z,35.00
2023-08-07T19:09:11.085Z,35.30
2023-08-07T19:11:37.877Z,35.40
2023-08-07T19:14:05.154Z,35.60
2023-08-07T19:16:32.562Z,35.20
2023-08-07T19:18:59.416Z,35.40
2023-08-07T19:21:26.644Z,35.70
2023-08-07T19:23:53.518Z,35.30
2023-08-07T19:26:20.302Z,35.00
2023-08-07T19:28:47.179Z,34.60
2023-08-07T19:31:13.986Z,34.60
2023-08-07T19:33:40.912Z,34.50
2023-08-07T19:36:07.726Z,34.50
2023-08-07T19:38:34.547Z,34.60
2023-08-07T19:41:01.453Z,34.30
2023-08-07T19:43:29.532Z,33.80
2023-08-07T19:45:57.709Z,33.80
2023-08-07T19:48:25.067Z,33.40
2023-08-07T19:50:58.187Z,33.50
2023-08-07T19:53:25.073Z,33.30
2023-08-07T19:55:51.983Z,33.20
2023-08-07T19:58:20.661Z,32.80
2023-08-07T20:00:48.029Z,32.00
2023-08-07T20:03:16.267Z,32.20
2023-08-07T20:05:43.153Z,31.60
2023-08-07T20:08:10.306Z,31.90
2023-08-07T20:10:37.312Z,31.50
2023-08-07T20:13:04.344Z,31.10
2023-08-07T20:15:31.305Z,31.10
2023-08-07T20:17:58.438Z,30.90
2023-08-07T20:20:25.503Z,31.00
2023-08-07T20:22:52.338Z,30.90
2023-08-07T20:25:19.174Z,31.20
2023-08-07T20:27:45.974Z,30.90
2023-08-07T20:30:12.913Z,31.50
2023-08-07T20:32:39.880Z,31.90
2023-08-07T20:35:07.035Z,32.60
2023-08-07T20:37:33.981Z,33.10
2023-08-07T20:40:00.940Z,33.50
2023-08-07T20:42:27.874Z,34.60
2023-08-07T20:44:54.790Z,34.70
2023-08-07T20:47:21.643Z,34.60
2023-08-07T20:49:48.482Z,34.20
2023-08-07T20:52:15.313Z,33.70
2023-08-07T20:54:42.208Z,33.00
2023-08-07T20:57:09.044Z,32.90
2023-08-07T20:59:35.890Z,32.60
2023-08-07T21:02:02.826Z,32.50
2023-08-07T21:04:29.785Z,32.60
2023-08-07T21:06:56.642Z,32.70
2023-08-07T21:09:23.471Z,32.20
2023-08-07T21:11:50.627Z,32.20
2023-08-07T21:14:17.449Z,31.50
2023-08-07T21:16:44.846Z,31.60
2023-08-07T21:19:13.050Z,30.60
2023-08-07T21:21:40.078Z,30.60
2023-08-07T21:24:13.091Z,30.10
2023-08-07T21:26:41.575Z,30.00
2023-08-07T21:29:08.857Z,29.80
2023-08-07T21:31:36.710Z,29.70
2023-08-07T21:34:03.797Z,29.80
2023-08-07T21:36:30.861Z,30.10
2023-08-07T21:38:58.814Z,30.00
2023-08-07T21:41:26.931Z,29.50
2023-08-07T21:43:54.121Z,29.50
2023-08-07T21:46:22.352Z,28.10
2023-08-07T21:48:50.934Z,0.00
2023-08-07T21:51:17.801Z,26.90
2023-08-07T21:53:44.565Z,26.60
2023-08-07T21:56:11.353Z,26.00
2023-08-07T21:58:38.154Z,25.90
2023-08-07T22:01:05.123Z,26.10
2023-08-07T22:03:34.956Z,26.10
2023-08-07T22:06:02.137Z,25.90
2023-08-07T22:08:29.917Z,26.10
2023-08-07T22:10:58.437Z,26.20
2023-08-07T22:13:25.304Z,26.00
2023-08-07T22:15:54.616Z,26.20
2023-08-07T22:18:21.679Z,26.90
2023-08-07T22:20:48.521Z,27.70
2023-08-07T22:23:19.038Z,27.70
2023-08-07T22:25:45.800Z,28.30
2023-08-07T22:28:12.642Z,28.70
2023-08-07T22:30:39.494Z,29.60
2023-08-07T22:33:06.617Z,30.00
2023-08-07T22:35:33.493Z,29.50
2023-08-07T22:38:00.286Z,29.40
2023-08-07T22:40:27.118Z,29.50
2023-08-07T22:42:54.012Z,29.90
2023-08-07T22:45:21.201Z,29.70
2023-08-07T22:47:48.027Z,29.80
2023-08-07T22:50:14.845Z,29.70
2023-08-07T22:52:41.800Z,29.80
2023-08-07T22:55:09.012Z,29.90
2023-08-07T22:57:36.003Z,29.90
2023-08-07T23:00:05.479Z,30.00
2023-08-07T23:02:32.416Z,30.30
2023-08-07T23:04:59.292Z,30.90
2023-08-07T23:07:26.236Z,30.90
2023-08-07T23:09:53.060Z,29.80
2023-08-07T23:12:19.931Z,29.40
2023-08-07T23:14:46.778Z,29.40
2023-08-07T23:17:18.509Z,29.80
2023-08-07T23:19:46.460Z,29.50
2023-08-07T23:22:13.346Z,29.00
2023-08-07T23:24:40.259Z,30.10
2023-08-07T23:27:08.044Z,29.60
2023-08-07T23:29:35.890Z,29.80
2023-08-07T23:32:02.972Z,30.90
2023-08-07T23:34:29.761Z,31.60
2023-08-07T23:36:56.601Z,32.00
2023-08-07T23:39:23.368Z,32.70
2023-08-07T23:41:50.165Z,33.00
2023-08-07T23:44:16.997Z,33.30
2023-08-07T23:46:43.956Z,33.30
2023-08-07T23:49:10.800Z,33.70
2023-08-07T23:51:37.638Z,34.40
2023-08-07T23:54:04.584Z,34.70
2023-08-07T23:56:31.446Z,35.10
2023-08-07T23:58:58.234Z,35.70
